Time;durP1;ratioP1;P1;durP2;ratioP2;P2;SDS_P1;SDS_P2;PMS_P1;PMS_P2;Temp;Humidity;BMP_temperature;BMP_pressure;BME280_temperature;BME280_humidity;BME280_pressure;Samples;Min_cycle;Max_cycle;Signal;HPM_P1;HPM_P2
2023/01/21 00:01:44;;;;;;;3.60;3.40;;;;;;;;;;5032651;28;20026;-70
2023/01/21 00:04:09;;;;;;;5.03;4.57;;;;;;;;;;5033602;28;20017;-67
2023/01/21 00:06:35;;;;;;;5.68;5.15;;;;;;;;;;5032220;28;20080;-69
2023/01/21 00:09:01;;;;;;;3.83;3.53;;;;;;;;;;5033981;28;20026;-69
2023/01/21 00:11:27;;;;;;;28.33;16.95;;;;;;;;;;5033706;28;20042;-69
2023/01/21 00:13:52;;;;;;;3.33;3.10;;;;;;;;;;5033792;28;20029;-70
2023/01/21 00:16:19;;;;;;;29.17;15.65;;;;;;;;;;5053137;28;20116;-68
2023/01/21 00:18:46;;;;;;;39.30;18.90;;;;;;;;;;5053223;28;20033;-67
2023/01/21 00:21:13;;;;;;;17.40;9.50;;;;;;;;;;5053507;28;20033;-67
2023/01/21 00:23:39;;;;;;;18.60;10.70;;;;;;;;;;5053564;28;20029;-67
2023/01/21 00:26:05;;;;;;;98.78;47.03;;;;;;;;;;5067976;22;20332;-65
2023/01/21 00:28:32;;;;;;;13.35;9.20;;;;;;;;;;5049983;23;20140;-66
2023/01/21 00:31:02;;;;;;;201.43;93.15;;;;;;;;;;5053586;28;20025;-65
2023/01/21 00:33:28;;;;;;;55.63;26.83;;;;;;;;;;5052796;28;20388;-65
2023/01/21 00:36:00;;;;;;;14.82;8.68;;;;;;;;;;5052599;28;20480;-65
2023/01/21 00:38:25;;;;;;;237.45;118.47;;;;;;;;;;5052952;28;20396;-65
2023/01/21 00:40:51;;;;;;;8.15;6.30;;;;;;;;;;5053105;28;20021;-66
2023/01/21 00:43:16;;;;;;;45.97;26.50;;;;;;;;;;5052777;28;20376;-67
2023/01/21 00:45:41;;;;;;;107.20;63.55;;;;;;;;;;5052940;28;20472;-67
2023/01/21 00:48:07;;;;;;;14.55;11.77;;;;;;;;;;5052793;28;20032;-67
2023/01/21 00:50:32;;;;;;;11.50;9.70;;;;;;;;;;5053162;28;20032;-67
2023/01/21 00:52:58;;;;;;;58.50;39.95;;;;;;;;;;5055408;28;20048;-67
2023/01/21 00:55:24;;;;;;;6.28;5.78;;;;;;;;;;5055188;28;20452;-65
2023/01/21 00:57:51;;;;;;;15.93;12.63;;;;;;;;;;5021872;28;20110;-67
2023/01/21 01:00:18;;;;;;;13.35;12.10;;;;;;;;;;5057081;28;20037;-67
2023/01/21 01:02:43;;;;;;;3.30;3.10;;;;;;;;;;5057085;28;20025;-66
2023/01/21 01:05:09;;;;;;;5.57;5.18;;;;;;;;;;5056360;28;20033;-68
2023/01/21 01:07:39;;;;;;;3.28;3.08;;;;;;;;;;5056637;28;20086;-68
2023/01/21 01:10:05;;;;;;;8.10;7.40;;;;;;;;;;5056789;28;20384;-68
2023/01/21 01:12:31;;;;;;;3.45;3.17;;;;;;;;;;5055899;28;20029;-68
2023/01/21 01:14:56;;;;;;;3.10;2.60;;;;;;;;;;5056803;28;20025;-68
2023/01/21 01:17:21;;;;;;;3.40;3.13;;;;;;;;;;5056900;28;20040;-68
2023/01/21 01:19:47;;;;;;;4.03;3.72;;;;;;;;;;5056510;28;20052;-68
2023/01/21 01:22:12;;;;;;;15.18;10.48;;;;;;;;;;5056136;28;20025;-67
2023/01/21 01:24:37;;;;;;;3.92;3.63;;;;;;;;;;5056456;28;20056;-66
2023/01/21 01:27:02;;;;;;;3.50;3.22;;;;;;;;;;5056285;28;20391;-66
2023/01/21 01:29:28;;;;;;;2.60;2.50;;;;;;;;;;5056227;28;20041;-67
2023/01/21 01:31:53;;;;;;;3.22;2.97;;;;;;;;;;5038510;28;20520;-68
2023/01/21 01:34:19;;;;;;;2.63;2.53;;;;;;;;;;5055879;28;20380;-68
2023/01/21 01:36:44;;;;;;;2.63;2.42;;;;;;;;;;5037600;28;20056;-67
2023/01/21 01:39:09;;;;;;;3.33;3.13;;;;;;;;;;5038633;28;20078;-67
2023/01/21 01:41:35;;;;;;;3.92;3.63;;;;;;;;;;5056086;28;20492;-67
2023/01/21 01:44:01;;;;;;;3.17;2.97;;;;;;;;;;5037565;28;20480;-67
2023/01/21 01:46:28;;;;;;;2.92;2.78;;;;;;;;;;5056003;28;20479;-67
2023/01/21 01:48:56;;;;;;;3.35;3.15;;;;;;;;;;5055729;28;20464;-67
2023/01/21 01:51:26;;;;;;;2.28;2.17;;;;;;;;;;5037367;28;20029;-65
2023/01/21 01:53:52;;;;;;;3.53;3.22;;;;;;;;;;5037936;28;20112;-66
2023/01/21 01:56:17;;;;;;;2.78;2.58;;;;;;;;;;5056306;28;20121;-65
2023/01/21 01:58:44;;;;;;;2.95;2.75;;;;;;;;;;5055398;28;20082;-66
2023/01/21 02:01:09;;;;;;;2.42;2.33;;;;;;;;;;5055481;28;20051;-66
2023/01/21 02:03:45;;;;;;;3.33;3.03;;;;;;;;;;5020566;28;20416;-65
2023/01/21 02:06:11;;;;;;;5.35;2.42;;;;;;;;;;5055372;28;20028;-66
2023/01/21 02:08:37;;;;;;;3.70;3.40;;;;;;;;;;5037490;28;20037;-66
2023/01/21 02:11:13;;;;;;;2.88;2.67;;;;;;;;;;5055810;28;20029;-64
2023/01/21 02:13:39;;;;;;;2.47;2.28;;;;;;;;;;5055143;28;20040;-64
2023/01/21 02:16:14;;;;;;;2.20;2.10;;;;;;;;;;5055176;28;20025;-64
2023/01/21 02:18:57;;;;;;;3.00;2.80;;;;;;;;;;5055285;28;20120;-64
2023/01/21 02:21:40;;;;;;;2.33;2.22;;;;;;;;;;5055377;28;20021;-66
2023/01/21 02:24:24;;;;;;;3.50;3.30;;;;;;;;;;5055190;28;20063;-66
2023/01/21 02:27:08;;;;;;;2.92;2.72;;;;;;;;;;5055557;28;20028;-65
2023/01/21 02:29:39;;;;;;;3.75;3.45;;;;;;;;;;5037039;28;20069;-65
2023/01/21 02:32:28;;;;;;;4.57;3.92;;;;;;;;;;5055145;28;20025;-68
2023/01/21 02:35:00;;;;;;;2.28;2.17;;;;;;;;;;5036813;28;20036;-66
2023/01/21 02:37:32;;;;;;;2.83;2.63;;;;;;;;;;5054285;28;20033;-66
2023/01/21 02:39:57;;;;;;;2.80;2.60;;;;;;;;;;5054353;28;20032;-66
2023/01/21 02:42:25;;;;;;;2.42;2.20;;;;;;;;;;5065349;28;20379;-65
2023/01/21 02:45:09;;;;;;;2.90;2.70;;;;;;;;;;5054779;28;20017;-65
2023/01/21 02:47:39;;;;;;;3.13;2.53;;;;;;;;;;5049355;22;20057;-64
2023/01/21 02:50:13;;;;;;;2.55;2.42;;;;;;;;;;5033776;28;20417;-65
2023/01/21 02:52:39;;;;;;;2.53;2.42;;;;;;;;;;5016770;28;20131;-65
2023/01/21 02:55:05;;;;;;;3.03;2.83;;;;;;;;;;5034803;28;20025;-65
2023/01/21 02:57:40;;;;;;;2.63;2.53;;;;;;;;;;5069788;22;20427;-64
2023/01/21 03:00:10;;;;;;;2.63;2.42;;;;;;;;;;5035378;28;20111;-65
2023/01/21 03:02:54;;;;;;;2.70;2.53;;;;;;;;;;5053574;28;20051;-65
2023/01/21 03:05:22;;;;;;;3.05;2.85;;;;;;;;;;5053458;28;20450;-65
2023/01/21 03:07:52;;;;;;;2.60;2.40;;;;;;;;;;5053442;28;20043;-65
2023/01/21 03:10:21;;;;;;;2.47;2.27;;;;;;;;;;5053711;28;20033;-64
2023/01/21 03:12:48;;;;;;;2.50;2.33;;;;;;;;;;5020169;28;20597;-65
2023/01/21 03:18:19;;;;;;;2.60;2.40;;;;;;;;;;5053693;28;20029;-63
2023/01/21 03:20:54;;;;;;;1.85;1.75;;;;;;;;;;5054337;28;20506;-64
2023/01/21 03:23:23;;;;;;;2.72;2.50;;;;;;;;;;5035818;28;20067;-64
2023/01/21 03:25:49;;;;;;;2.40;2.20;;;;;;;;;;5037033;28;20013;-64
2023/01/21 03:28:16;;;;;;;2.33;2.13;;;;;;;;;;5054429;28;20057;-64
2023/01/21 03:30:43;;;;;;;2.63;2.42;;;;;;;;;;5054286;28;20037;-65
2023/01/21 03:33:09;;;;;;;2.10;2.00;;;;;;;;;;5019458;28;20082;-64
2023/01/21 03:35:37;;;;;;;1.75;1.65;;;;;;;;;;5053745;28;20123;-64
2023/01/21 03:38:07;;;;;;;2.00;1.90;;;;;;;;;;5053644;28;20036;-64
2023/01/21 03:40:39;;;;;;;2.00;1.90;;;;;;;;;;5054266;28;20085;-65
2023/01/21 03:43:04;;;;;;;1.92;1.83;;;;;;;;;;5053914;28;20461;-65
2023/01/21 03:45:33;;;;;;;1.80;1.70;;;;;;;;;;5035950;28;20033;-65
2023/01/21 03:48:08;;;;;;;1.90;1.80;;;;;;;;;;5018638;28;20052;-65
2023/01/21 03:50:37;;;;;;;1.90;1.80;;;;;;;;;;5052953;28;20024;-64
2023/01/21 03:53:02;;;;;;;1.85;1.75;;;;;;;;;;5036256;28;20029;-64
2023/01/21 03:55:27;;;;;;;2.03;1.92;;;;;;;;;;5035961;28;20083;-64
2023/01/21 03:57:53;;;;;;;3.47;2.13;;;;;;;;;;5035657;28;20045;-64
2023/01/21 04:00:18;;;;;;;2.75;2.55;;;;;;;;;;5053401;28;20071;-65
2023/01/21 04:02:43;;;;;;;2.60;2.40;;;;;;;;;;5018960;28;20039;-66
2023/01/21 04:05:09;;;;;;;2.13;2.03;;;;;;;;;;5035940;28;20025;-66
2023/01/21 04:07:35;;;;;;;2.58;2.38;;;;;;;;;;5053393;28;20013;-66
2023/01/21 04:10:00;;;;;;;1.98;1.88;;;;;;;;;;5036024;28;20353;-65
2023/01/21 04:12:26;;;;;;;2.28;2.08;;;;;;;;;;5053608;28;20033;-65
2023/01/21 04:14:51;;;;;;;2.50;2.30;;;;;;;;;;5035862;28;20044;-65
2023/01/21 04:17:16;;;;;;;3.03;2.78;;;;;;;;;;5053532;28;20040;-65
2023/01/21 04:19:42;;;;;;;2.08;1.98;;;;;;;;;;5034942;28;20060;-65
2023/01/21 04:22:07;;;;;;;2.25;2.13;;;;;;;;;;5052799;28;20032;-64
2023/01/21 04:24:32;;;;;;;2.15;2.05;;;;;;;;;;5053186;28;20353;-64
2023/01/21 04:26:57;;;;;;;1.90;1.80;;;;;;;;;;5054505;28;20025;-64
2023/01/21 04:29:23;;;;;;;2.60;2.50;;;;;;;;;;5057166;28;20043;-64
2023/01/21 04:31:48;;;;;;;2.13;2.03;;;;;;;;;;5057142;28;20032;-68
2023/01/21 04:34:15;;;;;;;1.80;1.70;;;;;;;;;;5057037;28;20469;-68
2023/01/21 04:36:40;;;;;;;2.00;1.90;;;;;;;;;;5057314;28;20057;-68
2023/01/21 04:39:06;;;;;;;2.25;2.10;;;;;;;;;;5056870;28;20060;-68
2023/01/21 04:41:31;;;;;;;1.90;1.80;;;;;;;;;;5057261;28;20067;-68
2023/01/21 04:43:56;;;;;;;4.18;3.78;;;;;;;;;;5056873;28;20036;-68
2023/01/21 04:46:22;;;;;;;2.45;2.25;;;;;;;;;;5056579;28;20051;-66
2023/01/21 04:48:48;;;;;;;2.88;2.60;;;;;;;;;;5022880;28;20473;-66
2023/01/21 04:51:13;;;;;;;2.55;2.40;;;;;;;;;;5023302;28;20075;-66
2023/01/21 04:53:39;;;;;;;3.00;2.80;;;;;;;;;;5057267;28;20028;-67
2023/01/21 04:56:05;;;;;;;3.05;2.85;;;;;;;;;;5037920;28;20055;-67
2023/01/21 04:58:32;;;;;;;2.75;2.55;;;;;;;;;;5056036;28;20136;-67
2023/01/21 05:00:57;;;;;;;2.92;2.72;;;;;;;;;;5038367;28;20029;-67
2023/01/21 05:03:23;;;;;;;2.40;2.30;;;;;;;;;;5056036;28;20017;-67
2023/01/21 05:05:48;;;;;;;2.60;2.40;;;;;;;;;;5056297;28;20078;-67
2023/01/21 05:08:13;;;;;;;2.60;2.50;;;;;;;;;;5055857;28;20031;-67
2023/01/21 05:10:39;;;;;;;2.10;2.00;;;;;;;;;;5055440;28;20024;-66
2023/01/21 05:13:04;;;;;;;2.28;2.17;;;;;;;;;;5056252;28;20028;-66
2023/01/21 05:15:29;;;;;;;2.80;2.60;;;;;;;;;;5038093;28;20380;-66
2023/01/21 05:17:55;;;;;;;2.95;2.75;;;;;;;;;;5055836;28;20115;-65
2023/01/21 05:20:20;;;;;;;2.90;2.55;;;;;;;;;;5037928;28;20021;-65
2023/01/21 05:22:46;;;;;;;2.72;2.53;;;;;;;;;;5055101;28;20031;-65
2023/01/21 05:25:12;;;;;;;2.90;2.70;;;;;;;;;;5055915;28;20029;-64
2023/01/21 05:27:37;;;;;;;2.70;2.50;;;;;;;;;;5037918;28;20112;-64
2023/01/21 05:30:03;;;;;;;2.30;2.20;;;;;;;;;;5037984;28;20037;-64
2023/01/21 05:32:28;;;;;;;2.33;2.17;;;;;;;;;;5038016;28;20044;-67
2023/01/21 05:34:53;;;;;;;2.22;2.13;;;;;;;;;;5037585;28;20036;-62
2023/01/21 05:37:19;;;;;;;2.60;2.40;;;;;;;;;;5037485;28;20039;-65
2023/01/21 05:39:45;;;;;;;2.50;2.30;;;;;;;;;;5054556;28;20032;-65
2023/01/21 05:42:11;;;;;;;2.80;2.60;;;;;;;;;;5021190;28;20120;-66
2023/01/21 05:44:36;;;;;;;2.70;2.22;;;;;;;;;;5037783;28;20528;-63
2023/01/21 05:47:01;;;;;;;4.80;3.17;;;;;;;;;;5055436;28;20451;-63
2023/01/21 05:49:27;;;;;;;7.13;3.70;;;;;;;;;;5037061;28;20032;-62
2023/01/21 05:51:52;;;;;;;2.63;2.42;;;;;;;;;;5055200;28;20112;-64
2023/01/21 05:54:17;;;;;;;2.88;2.67;;;;;;;;;;5037236;28;20040;-64
2023/01/21 05:56:43;;;;;;;2.60;2.42;;;;;;;;;;5055442;28;20054;-64
2023/01/21 05:59:08;;;;;;;2.90;2.60;;;;;;;;;;5055171;28;20472;-63
2023/01/21 06:01:33;;;;;;;3.50;3.20;;;;;;;;;;5020376;28;20032;-62
2023/01/21 06:03:59;;;;;;;3.13;2.83;;;;;;;;;;5036923;28;20021;-64
2023/01/21 06:06:24;;;;;;;2.40;2.30;;;;;;;;;;5055095;28;20597;-65
2023/01/21 06:08:50;;;;;;;2.70;2.50;;;;;;;;;;5037153;28;20027;-65
2023/01/21 06:11:16;;;;;;;2.13;2.03;;;;;;;;;;5054480;28;20041;-65
2023/01/21 06:13:41;;;;;;;2.60;2.40;;;;;;;;;;5036653;28;20029;-64
2023/01/21 06:16:08;;;;;;;2.42;2.22;;;;;;;;;;5055336;28;20552;-64
2023/01/21 06:18:34;;;;;;;1.98;1.88;;;;;;;;;;5054936;28;20464;-66
2023/01/21 06:20:59;;;;;;;2.20;2.10;;;;;;;;;;5054849;28;20037;-65
2023/01/21 06:23:24;;;;;;;2.40;2.20;;;;;;;;;;5054051;28;20036;-67
2023/01/21 06:25:50;;;;;;;2.40;2.20;;;;;;;;;;5036600;28;20483;-64
2023/01/21 06:28:15;;;;;;;1.90;1.80;;;;;;;;;;5054607;28;20033;-67
2023/01/21 06:30:40;;;;;;;2.03;1.92;;;;;;;;;;5054721;28;20029;-65
2023/01/21 06:33:06;;;;;;;15.95;13.52;;;;;;;;;;5036691;28;20034;-64
2023/01/21 06:35:31;;;;;;;8.23;7.55;;;;;;;;;;5036868;28;20445;-63
2023/01/21 06:37:56;;;;;;;3.88;3.58;;;;;;;;;;5036900;28;20024;-63
2023/01/21 06:40:22;;;;;;;4.63;4.22;;;;;;;;;;5054170;28;20029;-63
2023/01/21 06:42:48;;;;;;;1.85;1.75;;;;;;;;;;5054503;28;20032;-63
2023/01/21 06:45:13;;;;;;;2.40;2.20;;;;;;;;;;5054058;28;20024;-70
2023/01/21 06:47:40;;;;;;;2.65;2.55;;;;;;;;;;5036675;28;20040;-70
2023/01/21 06:50:05;;;;;;;2.70;2.50;;;;;;;;;;5053803;28;20032;-70
2023/01/21 06:52:31;;;;;;;2.05;1.85;;;;;;;;;;5053659;28;20456;-70
2023/01/21 06:54:56;;;;;;;2.00;1.88;;;;;;;;;;5036360;28;20037;-70
2023/01/21 06:57:22;;;;;;;2.50;2.38;;;;;;;;;;5053408;28;20078;-69
2023/01/21 06:59:49;;;;;;;1.90;1.80;;;;;;;;;;5035455;28;20040;-69
2023/01/21 07:02:15;;;;;;;1.60;1.50;;;;;;;;;;5035848;28;20029;-72
2023/01/21 07:04:40;;;;;;;2.40;2.30;;;;;;;;;;5053758;28;20074;-72
2023/01/21 07:07:06;;;;;;;2.05;1.95;;;;;;;;;;5053411;28;20112;-72
2023/01/21 07:09:32;;;;;;;1.60;1.50;;;;;;;;;;5054131;28;20029;-72
2023/01/21 07:11:57;;;;;;;3.40;3.20;;;;;;;;;;5036932;28;20182;-72
2023/01/21 07:14:25;;;;;;;1.80;1.70;;;;;;;;;;5035578;28;20036;-74
2023/01/21 07:16:50;;;;;;;1.65;1.55;;;;;;;;;;5035956;28;20078;-74
2023/01/21 07:19:15;;;;;;;1.85;1.75;;;;;;;;;;5053913;28;20024;-74
2023/01/21 07:21:41;;;;;;;23.33;9.38;;;;;;;;;;5054027;28;20040;-75
2023/01/21 07:24:07;;;;;;;37.40;14.23;;;;;;;;;;5054181;28;20082;-74
2023/01/21 07:26:36;;;;;;;15.63;7.90;;;;;;;;;;5053961;28;20361;-73
2023/01/21 07:29:05;;;;;;;7.13;3.90;;;;;;;;;;5053648;28;20040;-69
2023/01/21 07:31:32;;;;;;;2.13;2.03;;;;;;;;;;5053889;28;20039;-65
2023/01/21 07:33:57;;;;;;;3.30;2.67;;;;;;;;;;5035574;28;20388;-64
2023/01/21 07:36:23;;;;;;;4.30;3.17;;;;;;;;;;5091733;22;20105;-62
2023/01/21 07:38:48;;;;;;;9.38;5.07;;;;;;;;;;5073760;28;20507;-62
2023/01/21 07:41:14;;;;;;;6.85;4.28;;;;;;;;;;5055950;28;20396;-63
2023/01/21 07:43:39;;;;;;;1.83;1.73;;;;;;;;;;5055600;28;20052;-63
2023/01/21 07:46:04;;;;;;;2.03;1.92;;;;;;;;;;5055570;28;20033;-63
2023/01/21 07:48:30;;;;;;;3.35;3.15;;;;;;;;;;5073459;28;20031;-62
2023/01/21 07:50:58;;;;;;;2.20;2.10;;;;;;;;;;5073423;28;20460;-62
2023/01/21 07:53:24;;;;;;;1.88;1.77;;;;;;;;;;5074186;22;20037;-62
2023/01/21 07:55:49;;;;;;;1.70;1.60;;;;;;;;;;5053224;28;20028;-62
2023/01/21 07:58:16;;;;;;;1.90;1.80;;;;;;;;;;5053331;28;20507;-62
2023/01/21 08:00:41;;;;;;;1.77;1.67;;;;;;;;;;5053160;28;20449;-62
2023/01/21 08:03:24;;;;;;;1.90;1.80;;;;;;;;;;5059543;22;20025;-63
2023/01/21 08:09:38;;;;;;;2.50;2.30;;;;;;;;;;5059370;22;20053;-64
2023/01/21 08:12:04;;;;;;;2.05;1.95;;;;;;;;;;5053984;28;20033;-68
2023/01/21 08:14:29;;;;;;;1.73;1.63;;;;;;;;;;5053141;28;20029;-68
2023/01/21 08:16:54;;;;;;;2.30;2.10;;;;;;;;;;5053109;28;20044;-68
2023/01/21 08:19:20;;;;;;;1.70;1.60;;;;;;;;;;5053478;28;20044;-68
2023/01/21 08:21:45;;;;;;;1.80;1.70;;;;;;;;;;5052001;28;20032;-69
2023/01/21 08:24:10;;;;;;;1.70;1.60;;;;;;;;;;5035249;28;20021;-69
2023/01/21 08:26:36;;;;;;;2.63;2.42;;;;;;;;;;5019045;28;20033;-70
2023/01/21 08:29:01;;;;;;;2.13;2.00;;;;;;;;;;5035150;28;20082;-69
2023/01/21 08:31:27;;;;;;;1.88;1.73;;;;;;;;;;5052969;28;20357;-69
2023/01/21 08:33:52;;;;;;;1.88;1.77;;;;;;;;;;5053169;28;20044;-69
2023/01/21 08:36:17;;;;;;;2.00;1.90;;;;;;;;;;5053328;28;20082;-69
2023/01/21 08:38:43;;;;;;;2.28;2.17;;;;;;;;;;5052842;28;20033;-69
2023/01/21 08:41:09;;;;;;;2.63;2.42;;;;;;;;;;5053218;28;20089;-69
2023/01/21 08:43:35;;;;;;;2.20;2.00;;;;;;;;;;5035578;28;20017;-68
2023/01/21 08:46:01;;;;;;;1.80;1.70;;;;;;;;;;5052992;28;20055;-69
2023/01/21 08:48:27;;;;;;;2.35;2.25;;;;;;;;;;5053592;28;20033;-68
2023/01/21 08:50:52;;;;;;;2.17;1.80;;;;;;;;;;5053094;28;20036;-66
2023/01/21 08:53:18;;;;;;;1.67;1.58;;;;;;;;;;5052891;28;20031;-67
2023/01/21 08:55:43;;;;;;;2.22;2.03;;;;;;;;;;5034821;28;20124;-67
2023/01/21 08:58:09;;;;;;;1.98;1.88;;;;;;;;;;5035472;28;20033;-74
2023/01/21 09:00:34;;;;;;;2.13;1.80;;;;;;;;;;5053348;28;20022;-66
2023/01/21 09:03:00;;;;;;;2.50;2.20;;;;;;;;;;5053582;28;20357;-66
2023/01/21 09:05:25;;;;;;;1.90;1.80;;;;;;;;;;5052853;28;20107;-66
2023/01/21 09:07:51;;;;;;;1.90;1.80;;;;;;;;;;5052635;28;20021;-66
2023/01/21 09:13:09;;;;;;;2.10;2.00;;;;;;;;;;5037262;28;20048;-66
2023/01/21 09:15:39;;;;;;;3.35;3.05;;;;;;;;;;5055985;28;20037;-66
2023/01/21 09:18:04;;;;;;;2.10;1.90;;;;;;;;;;5038916;28;20136;-66
2023/01/21 09:20:30;;;;;;;1.92;1.83;;;;;;;;;;5056353;28;20112;-69
2023/01/21 09:22:56;;;;;;;2.00;1.90;;;;;;;;;;5056233;28;20040;-67
2023/01/21 09:25:21;;;;;;;20.08;12.02;;;;;;;;;;5038532;28;20527;-70
2023/01/21 09:27:47;;;;;;;28.45;15.40;;;;;;;;;;5055989;28;20096;-70
2023/01/21 09:30:12;;;;;;;7.55;4.97;;;;;;;;;;5056380;28;20036;-70
2023/01/21 09:32:37;;;;;;;2.10;2.00;;;;;;;;;;5038103;28;20113;-70
2023/01/21 09:35:03;;;;;;;9.73;4.72;;;;;;;;;;5056230;28;20040;-70
2023/01/21 09:37:28;;;;;;;3.55;2.53;;;;;;;;;;5056205;28;20107;-70
2023/01/21 09:39:54;;;;;;;22.23;10.80;;;;;;;;;;5055448;28;20120;-70
2023/01/21 09:42:21;;;;;;;2.67;2.28;;;;;;;;;;5056318;28;20076;-70
2023/01/21 09:44:49;;;;;;;2.25;2.10;;;;;;;;;;5056064;28;20033;-70
2023/01/21 09:47:20;;;;;;;2.25;2.13;;;;;;;;;;5056186;28;20087;-70
2023/01/21 09:49:53;;;;;;;2.08;1.98;;;;;;;;;;5050741;22;20092;-69
2023/01/21 09:52:37;;;;;;;2.10;1.95;;;;;;;;;;5035892;28;20053;-68
2023/01/21 09:55:03;;;;;;;3.05;2.75;;;;;;;;;;5034599;28;20082;-68
2023/01/21 09:57:29;;;;;;;1.90;1.80;;;;;;;;;;5035889;28;20048;-69
2023/01/21 10:00:12;;;;;;;1.70;1.60;;;;;;;;;;5033805;28;20485;-69
2023/01/21 10:02:56;;;;;;;3.47;2.78;;;;;;;;;;5035665;28;20120;-69
2023/01/21 10:05:27;;;;;;;1.73;1.63;;;;;;;;;;5035426;28;20458;-70
2023/01/21 10:08:06;;;;;;;1.92;1.65;;;;;;;;;;5035261;28;20523;-70
2023/01/21 10:10:34;;;;;;;1.77;1.67;;;;;;;;;;5017382;28;20121;-70
2023/01/21 10:13:20;;;;;;;2.80;2.60;;;;;;;;;;5035427;28;20029;-70
2023/01/21 10:15:51;;;;;;;4.00;2.70;;;;;;;;;;5020267;28;20042;-71
2023/01/21 10:18:25;;;;;;;2.42;1.98;;;;;;;;;;5035536;28;20029;-71
2023/01/21 10:20:56;;;;;;;2.03;1.92;;;;;;;;;;5035056;28;20099;-70
2023/01/21 10:23:27;;;;;;;2.30;2.10;;;;;;;;;;5033957;28;20083;-71
2023/01/21 10:25:54;;;;;;;2.05;1.85;;;;;;;;;;5040467;22;20145;-68
2023/01/21 10:28:22;;;;;;;2.90;2.70;;;;;;;;;;5015513;28;20454;-68
2023/01/21 10:30:51;;;;;;;6.68;4.82;;;;;;;;;;4997257;28;20088;-68
2023/01/21 10:33:22;;;;;;;3.13;2.92;;;;;;;;;;5015259;28;20462;-68
2023/01/21 10:35:56;;;;;;;1.95;1.80;;;;;;;;;;5014488;28;20038;-69
2023/01/21 10:38:27;;;;;;;2.17;1.98;;;;;;;;;;5036001;22;20060;-66
2023/01/21 10:41:27;;;;;;;2.97;2.70;;;;;;;;;;5034868;28;20420;-69
2023/01/21 10:44:19;;;;;;;2.65;2.45;;;;;;;;;;5034766;28;20046;-69
2023/01/21 10:46:50;;;;;;;2.08;1.80;;;;;;;;;;5010903;28;20045;-69
2023/01/21 10:49:25;;;;;;;2.45;2.35;;;;;;;;;;5034569;28;20113;-69
2023/01/21 10:51:59;;;;;;;2.30;2.17;;;;;;;;;;5034682;28;20048;-66
2023/01/21 10:54:27;;;;;;;2.67;2.47;;;;;;;;;;5033132;28;20036;-66
2023/01/21 10:57:05;;;;;;;2.60;2.40;;;;;;;;;;5034623;28;20044;-66
2023/01/21 10:59:32;;;;;;;2.72;2.53;;;;;;;;;;5034395;28;20388;-66
2023/01/21 11:02:19;;;;;;;3.42;3.13;;;;;;;;;;5035025;28;20032;-66
2023/01/21 11:04:45;;;;;;;2.80;2.60;;;;;;;;;;5033633;28;20030;-66
2023/01/21 11:07:12;;;;;;;3.38;3.08;;;;;;;;;;5033283;28;20041;-66
2023/01/21 11:09:40;;;;;;;3.15;2.90;;;;;;;;;;5000125;28;20068;-65
2023/01/21 11:12:08;;;;;;;2.92;2.72;;;;;;;;;;5032045;28;20037;-66
2023/01/21 11:14:33;;;;;;;2.88;2.67;;;;;;;;;;5033129;28;20033;-65
2023/01/21 11:16:59;;;;;;;3.10;2.90;;;;;;;;;;5033360;28;20041;-66
2023/01/21 11:19:25;;;;;;;240.32;62.25;;;;;;;;;;5014882;28;20172;-66
2023/01/21 11:22:03;;;;;;;6.90;4.57;;;;;;;;;;5033112;28;20159;-66
2023/01/21 11:24:29;;;;;;;7.05;4.05;;;;;;;;;;5033558;28;20029;-66
2023/01/21 11:26:58;;;;;;;3.17;2.97;;;;;;;;;;5034132;28;20034;-65
2023/01/21 11:29:24;;;;;;;3.20;3.00;;;;;;;;;;5034169;28;20389;-66
2023/01/21 11:31:51;;;;;;;2.95;2.75;;;;;;;;;;5034165;28;20033;-66
2023/01/21 11:34:21;;;;;;;4.30;3.30;;;;;;;;;;5033146;28;20029;-66
2023/01/21 11:36:54;;;;;;;3.53;3.05;;;;;;;;;;5032980;28;20044;-66
2023/01/21 11:39:21;;;;;;;3.75;3.45;;;;;;;;;;5021816;28;20034;-66
2023/01/21 11:41:55;;;;;;;4.03;3.00;;;;;;;;;;5012760;28;20058;-66
2023/01/21 11:44:21;;;;;;;3.28;3.00;;;;;;;;;;5012241;28;20037;-66
2023/01/21 11:46:48;;;;;;;5.30;3.92;;;;;;;;;;5013821;28;20018;-66
2023/01/21 11:49:24;;;;;;;14.00;6.40;;;;;;;;;;5014123;28;20038;-66
2023/01/21 11:51:50;;;;;;;3.90;3.50;;;;;;;;;;5012782;28;20026;-66
2023/01/21 11:54:19;;;;;;;4.00;3.38;;;;;;;;;;5013783;28;20486;-66
2023/01/21 11:56:58;;;;;;;6.45;4.57;;;;;;;;;;5011321;28;20037;-66
2023/01/21 11:59:24;;;;;;;3.40;3.10;;;;;;;;;;5013216;28;20058;-66
2023/01/21 12:02:09;;;;;;;3.33;3.13;;;;;;;;;;5011624;28;20107;-66
2023/01/21 12:04:35;;;;;;;81.22;21.30;;;;;;;;;;4979661;28;20168;-66
2023/01/21 12:07:01;;;;;;;5.65;4.25;;;;;;;;;;5008945;28;20113;-66
2023/01/21 12:09:27;;;;;;;4.38;3.70;;;;;;;;;;4991810;28;20045;-68
2023/01/21 12:12:05;;;;;;;4.07;3.67;;;;;;;;;;4992764;28;20061;-66
2023/01/21 12:14:37;;;;;;;3.70;3.40;;;;;;;;;;4993394;28;20065;-62
2023/01/21 12:17:27;;;;;;;7.22;4.75;;;;;;;;;;5000511;28;20030;-69
2023/01/21 12:20:11;;;;;;;4.07;3.78;;;;;;;;;;5012674;28;20065;-69
2023/01/21 12:22:36;;;;;;;4.03;3.63;;;;;;;;;;4994893;28;20030;-66
2023/01/21 12:25:02;;;;;;;4.32;3.92;;;;;;;;;;5013175;28;20026;-66
2023/01/21 12:27:42;;;;;;;4.28;3.88;;;;;;;;;;5011562;28;20030;-66
2023/01/21 12:30:08;;;;;;;;;;;;;;;;;;5013901;28;20045;-67
2023/01/21 12:32:36;;;;;;;39.63;15.82;;;;;;;;;;5011921;28;19916;-67
2023/01/21 12:35:04;;;;;;;4.07;3.65;;;;;;;;;;5013043;28;20073;-67
2023/01/21 12:37:36;;;;;;;4.38;3.97;;;;;;;;;;4994827;28;20030;-67
2023/01/21 12:40:11;;;;;;;4.60;4.20;;;;;;;;;;5028055;28;20125;-67
2023/01/21 12:42:39;;;;;;;5.60;4.30;;;;;;;;;;5032893;28;20491;-67
2023/01/21 12:45:09;;;;;;;4.25;3.85;;;;;;;;;;5033044;28;20021;-67
2023/01/21 12:47:48;;;;;;;4.88;4.10;;;;;;;;;;4998326;28;20050;-67
2023/01/21 12:50:18;;;;;;;4.97;4.07;;;;;;;;;;5015336;28;20041;-67
2023/01/21 12:53:02;;;;;;;4.85;3.90;;;;;;;;;;5015826;28;20030;-67
2023/01/21 12:55:35;;;;;;;4.50;4.10;;;;;;;;;;5015454;28;20088;-67
2023/01/21 12:58:09;;;;;;;4.93;4.40;;;;;;;;;;5015290;28;20053;-68
2023/01/21 13:00:36;;;;;;;5.38;4.85;;;;;;;;;;5017262;28;21544;-67
2023/01/21 13:03:20;;;;;;;4.32;3.90;;;;;;;;;;5034211;28;20033;-67
2023/01/21 13:05:54;;;;;;;4.55;4.13;;;;;;;;;;5036378;28;20061;-67
2023/01/21 13:08:35;;;;;;;4.57;4.20;;;;;;;;;;5036064;28;20022;-66
2023/01/21 13:11:13;;;;;;;4.50;4.10;;;;;;;;;;5035893;28;20404;-67
2023/01/21 13:13:42;;;;;;;5.32;4.50;;;;;;;;;;5035970;28;20053;-67
2023/01/21 13:16:09;;;;;;;5.70;4.18;;;;;;;;;;5017859;28;20018;-67
2023/01/21 13:18:35;;;;;;;5.78;4.57;;;;;;;;;;5017834;28;20025;-67
2023/01/21 13:21:21;;;;;;;5.63;5.13;;;;;;;;;;5018237;28;20029;-66
2023/01/21 13:23:52;;;;;;;5.53;5.03;;;;;;;;;;5017772;28;20038;-67
2023/01/21 13:26:17;;;;;;;5.53;5.00;;;;;;;;;;5034820;28;20036;-67
2023/01/21 13:29:01;;;;;;;7.20;5.88;;;;;;;;;;5033994;28;20033;-66
2023/01/21 13:31:30;;;;;;;6.88;6.18;;;;;;;;;;5031043;28;20477;-65
2023/01/21 13:34:01;;;;;;;6.70;5.78;;;;;;;;;;5034727;28;20116;-65
2023/01/21 13:36:45;;;;;;;6.53;5.80;;;;;;;;;;5036035;28;20039;-68
2023/01/21 13:39:21;;;;;;;8.43;7.05;;;;;;;;;;5034108;28;20041;-64
2023/01/21 13:42:02;;;;;;;13.38;8.73;;;;;;;;;;5034024;28;20463;-65
2023/01/21 13:44:42;;;;;;;30.90;15.07;;;;;;;;;;5034518;28;20037;-72
2023/01/21 13:47:13;;;;;;;44.10;23.13;;;;;;;;;;5018381;28;20169;-72
2023/01/21 13:49:38;;;;;;;;;;;;;;;;;;4998508;28;20038;-72
2023/01/21 13:52:10;;;;;;;26.10;12.07;;;;;;;;;;5014482;28;19910;-72
2023/01/21 13:54:42;;;;;;;15.00;8.57;;;;;;;;;;5014703;28;20029;-72
2023/01/21 13:57:10;;;;;;;7.05;6.05;;;;;;;;;;4998420;28;20044;-72
2023/01/21 13:59:55;;;;;;;6.85;5.60;;;;;;;;;;5015095;28;20037;-66
2023/01/21 14:02:25;;;;;;;8.40;5.82;;;;;;;;;;5035252;28;20535;-71
2023/01/21 14:05:04;;;;;;;7.75;6.95;;;;;;;;;;5034092;28;20114;-69
2023/01/21 14:07:32;;;;;;;9.15;7.80;;;;;;;;;;5033814;28;20102;-76
2023/01/21 14:10:00;;;;;;;7.95;6.93;;;;;;;;;;5035251;28;20068;-78
2023/01/21 14:12:43;;;;;;;6.53;5.85;;;;;;;;;;5034979;28;20029;-77
2023/01/21 14:15:27;;;;;;;10.13;6.40;;;;;;;;;;5033660;28;20113;-76
2023/01/21 14:17:56;;;;;;;6.38;5.45;;;;;;;;;;4994468;28;20034;-78
2023/01/21 14:20:22;;;;;;;6.95;5.53;;;;;;;;;;4994031;28;20058;-78
2023/01/21 14:22:59;;;;;;;6.50;5.70;;;;;;;;;;4994990;28;20128;-78
2023/01/21 14:25:37;;;;;;;7.05;5.97;;;;;;;;;;4995700;28;20057;-78
2023/01/21 14:28:21;;;;;;;9.77;6.57;;;;;;;;;;4993923;28;20117;-78
2023/01/21 14:30:46;;;;;;;8.82;6.72;;;;;;;;;;5017830;28;20117;-78
2023/01/21 14:33:15;;;;;;;9.07;6.82;;;;;;;;;;5034989;28;20433;-78
2023/01/21 14:35:40;;;;;;;9.38;7.10;;;;;;;;;;5035169;28;20041;-78
2023/01/21 14:38:15;;;;;;;9.15;7.43;;;;;;;;;;5035490;28;20022;-78
2023/01/21 14:40:46;;;;;;;12.63;8.07;;;;;;;;;;5055154;28;20021;-78
2023/01/21 14:43:39;;;;;;;8.50;6.43;;;;;;;;;;5036879;28;20021;-78
2023/01/21 14:46:22;;;;;;;9.30;6.85;;;;;;;;;;5054187;28;20029;-78
2023/01/21 14:49:06;;;;;;;9.82;7.30;;;;;;;;;;5054228;28;20047;-79
2023/01/21 14:51:36;;;;;;;8.52;7.20;;;;;;;;;;5056129;28;20032;-79
2023/01/21 14:54:12;;;;;;;7.83;7.07;;;;;;;;;;5037264;28;20032;-77
2023/01/21 14:56:38;;;;;;;8.70;6.70;;;;;;;;;;5037223;28;20060;-78
2023/01/21 14:59:07;;;;;;;7.72;6.32;;;;;;;;;;5036896;28;20029;-77
2023/01/21 15:01:41;;;;;;;9.65;7.15;;;;;;;;;;5036911;28;20037;-77